Eurocargo Valencia — IBGZ — position and weather

sailwx.info

Track history (hours):
 
Tides and Currents Weather Stations Pressure Air Temp Water Temp Dewpoint Dewpoint Depression Visibility Wind Speed Wind Dir Waves Ship Positions

Eurocargo Valencia

Last reported at 2017-Feb-21 09:09 UTC. Time now 2017-Feb-21 12:15 UTC.
Position N 37°28' E 015°10'.

Length 196 m; draft 6.9 m.

Type: Ship (hazmat cat A). MMSI: 247579000.

Date/timePositionNaut miles runAvg speedWind from/ knotsBaromVisibWave heightAir tempDewpointWater temp
2017-Feb-21 09:09N 37°28' E 015°10'915.6
2017-Feb-21 08:33N 37°36' E 015°16'1616.4
2017-Feb-21 07:33N 37°51' E 015°24'1616.4
2017-Feb-21 06:33N 38°06' E 015°33'1615.7
2017-Feb-21 05:33N 38°21' E 015°39'1716.6
2017-Feb-21 04:33N 38°37' E 015°32'1615.9
2017-Feb-21 03:33N 38°52' E 015°25'12 0.2
2017-Feb-19 03:33N 39°03' E 015°20'1616.1
2017-Feb-19 02:33N 38°48' E 015°28'1616.5
2017-Feb-19 01:33N 38°32' E 015°36'1616.4
2017-Feb-19 00:33N 38°17' E 015°42'1514.9
2017-Feb-18 23:33N 38°04' E 015°33'1514.9
2017-Feb-18 22:34N 37°51' E 015°24'2016.7
2017-Feb-18 21:22N 37°33' E 015°13'3 0.3
2017-Feb-18 10:30N 37°30' E 015°11'1516.2
2017-Feb-18 09:34N 37°44' E 015°20'1716.6
2017-Feb-18 08:33N 37°59' E 015°29'1717.0
2017-Feb-18 07:34N 38°15' E 015°37'1514.7
2017-Feb-18 06:34N 38°29' E 015°35'1616.2
2017-Feb-18 05:34N 38°45' E 015°28'1616.2
2017-Feb-18 04:33N 38°60' E 015°20'5 0.2
2017-Feb-17 05:24N 39°05' E 015°20'1416.7
2017-Feb-17 04:32N 38°51' E 015°26'1716.9
2017-Feb-17 03:33N 38°36' E 015°34'1716.9
2017-Feb-17 02:33N 38°20' E 015°43'1414.0
2017-Feb-17 01:33N 38°07' E 015°36'1616.2
2017-Feb-17 00:33N 37°53' E 015°26'1716.5
2017-Feb-16 23:33N 37°38' E 015°17'1 0.1
2017-Feb-16 11:32N 37°37' E 015°16'1616.6
2017-Feb-16 10:34N 37°51' E 015°24'1716.6
2017-Feb-16 09:34N 38°06' E 015°33'1615.5
2017-Feb-16 08:34N 38°21' E 015°39'1616.0
2017-Feb-16 07:33N 38°36' E 015°32'1616.2
2017-Feb-16 06:33N 38°51' E 015°24'17 0.7
2017-Feb-15 04:26N 39°08' E 015°18'1516.7
2017-Feb-15 03:33N 38°54' E 015°25'1717.0
2017-Feb-15 02:34N 38°38' E 015°33'1716.7
2017-Feb-15 01:33N 38°23' E 015°40'1313.5
2017-Feb-15 00:33N 38°09' E 015°37'1616.4
2017-Feb-14 23:33N 37°55' E 015°27'1716.2
2017-Feb-14 22:30N 37°39' E 015°17'2 0.2
2017-Feb-14 09:33N 37°37' E 015°16'1717.2
2017-Feb-14 08:34N 37°53' E 015°25'1717.2
2017-Feb-14 07:33N 38°08' E 015°34'1514.5
2017-Feb-14 06:33N 38°22' E 015°38'1716.7
2017-Feb-14 05:33N 38°38' E 015°31'1616.3
2017-Feb-14 04:33N 38°53' E 015°24'4 0.1
2017-Feb-12 02:32N 38°57' E 015°23'1717.2
2017-Feb-12 01:33N 38°41' E 015°31'1616.4
2017-Feb-12 00:33N 38°26' E 015°39'1413.6
2017-Feb-11 23:33N 38°13' E 015°37'1616.5
2017-Feb-11 22:33N 37°57' E 015°29'1616.2
2017-Feb-11 21:33N 37°43' E 015°20'14 1.2
2017-Feb-11 10:30N 37°31' E 015°12'1515.9
2017-Feb-11 09:33N 37°44' E 015°20'  
Track history (hours):
 
Tides and Currents Weather Stations Pressure Air Temp Water Temp Dewpoint Dewpoint Depression Visibility Wind Speed Wind Dir Waves Ship Positions

Eurocargo Valencia

Last reported at 2017-Feb-21 09:09 UTC. Time now 2017-Feb-21 12:15 UTC.
Position N 37°28' E 015°10'.

Length 196 m; draft 6.9 m.

Type: Ship (hazmat cat A). MMSI: 247579000.

Date/timePositionNaut miles runAvg speedWind from/ knotsBaromVisibWave heightAir tempDewpointWater temp
2017-Feb-21 09:09N 37°28' E 015°10'915.6
2017-Feb-21 08:33N 37°36' E 015°16'1616.4
2017-Feb-21 07:33N 37°51' E 015°24'1616.4
2017-Feb-21 06:33N 38°06' E 015°33'1615.7
2017-Feb-21 05:33N 38°21' E 015°39'1716.6
2017-Feb-21 04:33N 38°37' E 015°32'1615.9
2017-Feb-21 03:33N 38°52' E 015°25'12 0.2
2017-Feb-19 03:33N 39°03' E 015°20'1616.1
2017-Feb-19 02:33N 38°48' E 015°28'1616.5
2017-Feb-19 01:33N 38°32' E 015°36'1616.4
2017-Feb-19 00:33N 38°17' E 015°42'1514.9
2017-Feb-18 23:33N 38°04' E 015°33'1514.9
2017-Feb-18 22:34N 37°51' E 015°24'2016.7
2017-Feb-18 21:22N 37°33' E 015°13'3 0.3
2017-Feb-18 10:30N 37°30' E 015°11'1516.2
2017-Feb-18 09:34N 37°44' E 015°20'1716.6
2017-Feb-18 08:33N 37°59' E 015°29'1717.0
2017-Feb-18 07:34N 38°15' E 015°37'1514.7
2017-Feb-18 06:34N 38°29' E 015°35'1616.2
2017-Feb-18 05:34N 38°45' E 015°28'1616.2
2017-Feb-18 04:33N 38°60' E 015°20'5 0.2
2017-Feb-17 05:24N 39°05' E 015°20'1416.7
2017-Feb-17 04:32N 38°51' E 015°26'1716.9
2017-Feb-17 03:33N 38°36' E 015°34'1716.9
2017-Feb-17 02:33N 38°20' E 015°43'1414.0
2017-Feb-17 01:33N 38°07' E 015°36'1616.2
2017-Feb-17 00:33N 37°53' E 015°26'1716.5
2017-Feb-16 23:33N 37°38' E 015°17'1 0.1
2017-Feb-16 11:32N 37°37' E 015°16'1616.6
2017-Feb-16 10:34N 37°51' E 015°24'1716.6
2017-Feb-16 09:34N 38°06' E 015°33'1615.5
2017-Feb-16 08:34N 38°21' E 015°39'1616.0
2017-Feb-16 07:33N 38°36' E 015°32'1616.2
2017-Feb-16 06:33N 38°51' E 015°24'17 0.7
2017-Feb-15 04:26N 39°08' E 015°18'1516.7
2017-Feb-15 03:33N 38°54' E 015°25'1717.0
2017-Feb-15 02:34N 38°38' E 015°33'1716.7
2017-Feb-15 01:33N 38°23' E 015°40'1313.5
2017-Feb-15 00:33N 38°09' E 015°37'1616.4
2017-Feb-14 23:33N 37°55' E 015°27'1716.2
2017-Feb-14 22:30N 37°39' E 015°17'2 0.2
2017-Feb-14 09:33N 37°37' E 015°16'1717.2
2017-Feb-14 08:34N 37°53' E 015°25'1717.2
2017-Feb-14 07:33N 38°08' E 015°34'1514.5
2017-Feb-14 06:33N 38°22' E 015°38'1716.7
2017-Feb-14 05:33N 38°38' E 015°31'1616.3
2017-Feb-14 04:33N 38°53' E 015°24'4 0.1
2017-Feb-12 02:32N 38°57' E 015°23'1717.2
2017-Feb-12 01:33N 38°41' E 015°31'1616.4
2017-Feb-12 00:33N 38°26' E 015°39'1413.6
2017-Feb-11 23:33N 38°13' E 015°37'1616.5
2017-Feb-11 22:33N 37°57' E 015°29'1616.2
2017-Feb-11 21:33N 37°43' E 015°20'14 1.2
2017-Feb-11 10:30N 37°31' E 015°12'1515.9
2017-Feb-11 09:33N 37°44' E 015°20'  

Dump ship's entire track history